CXA0823 ZSPD-ZUUU
Flight info
| Callsign | CXA0823 |
|---|---|
| Flight time | 2h 45m |
| Altitude | 30100 |
| Route | PIK81D/17L PIKAS G330 UNTAN G345 OLRIS R343 MADUK W51 LEGIV W164 ADGOL W50 XSH W80 URGEG W231 EKOKA EKOKA2E |
| Aircraft | A320/M-SDE3FGHIRWY/LB1 |
Departure
| Time | 2026-05-09 06:26 |
|---|---|
| Airport | Shanghai Pudong International Airport (ZSPD) |
Arrival
| Time | 2026-05-09 09:11 |
|---|---|
| Airport | Chengdu Shuangliu International Airport (ZUUU) |
| Time | Latitude | Longitude | Altitude | Speed | Heading |
|---|---|---|---|---|---|
| 2026-05-09 06:06 | 31.15500 | 121.79680 | 23 ft | 0 kts | 252° |
| 2026-05-09 06:13 | 31.15506 | 121.79705 | 23 ft | 4 kts | 260° |
| 2026-05-09 06:13 | 31.15508 | 121.79735 | 23 ft | 4 kts | 281° |
| 2026-05-09 06:13 | 31.15498 | 121.79760 | 24 ft | 4 kts | 335° |
| 2026-05-09 06:14 | 31.15490 | 121.79764 | 27 ft | 0 kts | 342° |
| 2026-05-09 06:17 | 31.15491 | 121.79763 | 26 ft | 1 kts | 342° |
| 2026-05-09 06:17 | 31.15522 | 121.79752 | 23 ft | 10 kts | 342° |
| 2026-05-09 06:17 | 31.15625 | 121.79712 | 23 ft | 18 kts | 342° |
| 2026-05-09 06:17 | 31.15731 | 121.79673 | 23 ft | 12 kts | 342° |
| 2026-05-09 06:18 | 31.15775 | 121.79596 | 23 ft | 13 kts | 259° |
| 2026-05-09 06:18 | 31.15745 | 121.79488 | 25 ft | 15 kts | 252° |
| 2026-05-09 06:18 | 31.15711 | 121.79370 | 23 ft | 16 kts | 251° |
| 2026-05-09 06:18 | 31.15676 | 121.79241 | 23 ft | 17 kts | 252° |
| 2026-05-09 06:19 | 31.15640 | 121.79112 | 23 ft | 16 kts | 252° |
| 2026-05-09 06:19 | 31.15633 | 121.79012 | 22 ft | 11 kts | 308° |
| 2026-05-09 06:19 | 31.15709 | 121.78974 | 22 ft | 13 kts | 341° |
| 2026-05-09 06:19 | 31.15798 | 121.78941 | 22 ft | 14 kts | 342° |
| 2026-05-09 06:20 | 31.15895 | 121.78905 | 23 ft | 15 kts | 342° |
| 2026-05-09 06:20 | 31.15915 | 121.78897 | 23 ft | 0 kts | 342° |
| 2026-05-09 06:21 | 31.15929 | 121.78892 | 23 ft | 5 kts | 342° |
| 2026-05-09 06:21 | 31.15963 | 121.78863 | 24 ft | 7 kts | 298° |
| 2026-05-09 06:22 | 31.15957 | 121.78818 | 23 ft | 0 kts | 248° |
| 2026-05-09 06:22 | 31.15957 | 121.78816 | 23 ft | 1 kts | 252° |
| 2026-05-09 06:22 | 31.15950 | 121.78790 | 25 ft | 5 kts | 253° |
| 2026-05-09 06:22 | 31.15949 | 121.78787 | 24 ft | 0 kts | 253° |
| 2026-05-09 06:23 | 31.15949 | 121.78784 | 23 ft | 2 kts | 253° |
| 2026-05-09 06:23 | 31.15938 | 121.78743 | 25 ft | 9 kts | 253° |
| 2026-05-09 06:23 | 31.15902 | 121.78685 | 22 ft | 9 kts | 189° |
| 2026-05-09 06:24 | 31.15875 | 121.78693 | 22 ft | 0 kts | 161° |
| 2026-05-09 06:24 | 31.15874 | 121.78694 | 22 ft | 0 kts | 161° |
| 2026-05-09 06:25 | 31.15870 | 121.78695 | 23 ft | 2 kts | 161° |
| 2026-05-09 06:25 | 31.15677 | 121.78769 | 22 ft | 63 kts | 162° |
| 2026-05-09 06:25 | 31.15075 | 121.78996 | 24 ft | 116 kts | 162° |
| 2026-05-09 06:26 | 31.14167 | 121.79339 | 21 ft | 157 kts | 162° |
| 2026-05-09 06:26 | 31.13054 | 121.79761 | 323 ft | 171 kts | 160° |
| 2026-05-09 06:26 | 31.11887 | 121.80179 | 848 ft | 180 kts | 162° |
| 2026-05-09 06:26 | 31.10674 | 121.80584 | 1464 ft | 181 kts | 163° |
| 2026-05-09 06:27 | 31.09443 | 121.80994 | 1996 ft | 191 kts | 163° |
| 2026-05-09 06:27 | 31.08075 | 121.81451 | 2225 ft | 217 kts | 163° |
| 2026-05-09 06:27 | 31.06540 | 121.81971 | 2573 ft | 237 kts | 163° |
| 2026-05-09 06:27 | 31.04926 | 121.82515 | 2996 ft | 245 kts | 163° |
| 2026-05-09 06:28 | 31.03271 | 121.83076 | 3428 ft | 249 kts | 163° |
| 2026-05-09 06:28 | 31.01592 | 121.83630 | 3847 ft | 252 kts | 166° |
| 2026-05-09 06:28 | 30.99839 | 121.83529 | 4274 ft | 261 kts | 200° |
| 2026-05-09 06:28 | 30.98413 | 121.82217 | 4711 ft | 269 kts | 234° |
| 2026-05-09 06:29 | 30.97632 | 121.80213 | 5147 ft | 276 kts | 252° |
| 2026-05-09 06:29 | 30.97170 | 121.78027 | 5565 ft | 279 kts | 256° |
| 2026-05-09 06:29 | 30.96783 | 121.75811 | 6034 ft | 281 kts | 256° |
| 2026-05-09 06:29 | 30.96365 | 121.73573 | 6204 ft | 277 kts | 257° |
| 2026-05-09 06:30 | 30.96272 | 121.71310 | 6535 ft | 283 kts | 275° |
| 2026-05-09 06:30 | 30.96680 | 121.69065 | 6874 ft | 286 kts | 282° |
| 2026-05-09 06:30 | 30.97127 | 121.66798 | 7694 ft | 286 kts | 281° |
| 2026-05-09 06:30 | 30.97546 | 121.64528 | 8522 ft | 288 kts | 281° |
| 2026-05-09 06:31 | 30.97961 | 121.62235 | 9317 ft | 290 kts | 281° |
| 2026-05-09 06:31 | 30.98377 | 121.59921 | 10099 ft | 292 kts | 281° |
| 2026-05-09 06:31 | 30.98807 | 121.57534 | 10418 ft | 312 kts | 281° |
| 2026-05-09 06:31 | 30.99272 | 121.54971 | 10544 ft | 335 kts | 281° |
| 2026-05-09 06:32 | 30.99770 | 121.52230 | 10654 ft | 356 kts | 282° |
| 2026-05-09 06:32 | 31.00299 | 121.49343 | 10930 ft | 370 kts | 282° |
| 2026-05-09 06:32 | 31.00836 | 121.46432 | 11504 ft | 374 kts | 282° |
| 2026-05-09 06:33 | 31.01941 | 121.40479 | 12781 ft | 377 kts | 282° |
| 2026-05-09 06:33 | 31.02493 | 121.37488 | 13449 ft | 378 kts | 283° |
| 2026-05-09 06:33 | 31.03041 | 121.34494 | 14104 ft | 378 kts | 283° |
| 2026-05-09 06:34 | 31.04141 | 121.28451 | 15135 ft | 384 kts | 282° |
| 2026-05-09 06:34 | 31.04697 | 121.25390 | 15626 ft | 387 kts | 282° |
| 2026-05-09 06:34 | 31.05255 | 121.22319 | 16154 ft | 389 kts | 282° |
| 2026-05-09 06:34 | 31.05995 | 121.19277 | 16644 ft | 392 kts | 292° |
| 2026-05-09 06:35 | 31.07380 | 121.16540 | 17172 ft | 395 kts | 307° |
| 2026-05-09 06:35 | 31.09376 | 121.14318 | 17695 ft | 401 kts | 322° |
| 2026-05-09 06:35 | 31.11868 | 121.12803 | 18199 ft | 408 kts | 338° |
| 2026-05-09 06:35 | 31.14675 | 121.12149 | 18658 ft | 417 kts | 353° |
| 2026-05-09 06:36 | 31.17583 | 121.11980 | 19098 ft | 420 kts | 355° |
| 2026-05-09 06:36 | 31.20510 | 121.11824 | 19592 ft | 421 kts | 354° |
| 2026-05-09 06:36 | 31.23444 | 121.11666 | 20048 ft | 423 kts | 354° |
| 2026-05-09 06:36 | 31.26394 | 121.11505 | 20476 ft | 426 kts | 354° |
| 2026-05-09 06:37 | 31.29367 | 121.11339 | 20875 ft | 429 kts | 353° |
| 2026-05-09 06:37 | 31.32358 | 121.11167 | 21272 ft | 431 kts | 353° |
| 2026-05-09 06:37 | 31.35369 | 121.11034 | 21648 ft | 436 kts | 356° |
| 2026-05-09 06:37 | 31.38416 | 121.11210 | 22012 ft | 440 kts | 359° |
| 2026-05-09 06:38 | 31.41480 | 121.11384 | 22383 ft | 441 kts | 356° |
| 2026-05-09 06:38 | 31.44522 | 121.11112 | 22730 ft | 437 kts | 346° |
| 2026-05-09 06:38 | 31.47463 | 121.10256 | 23083 ft | 434 kts | 336° |
| 2026-05-09 06:38 | 31.50237 | 121.08894 | 23423 ft | 433 kts | 331° |
| 2026-05-09 06:39 | 31.52987 | 121.07425 | 23763 ft | 435 kts | 331° |
| 2026-05-09 06:39 | 31.55750 | 121.05957 | 24053 ft | 437 kts | 331° |
| 2026-05-09 06:39 | 31.58531 | 121.04483 | 24370 ft | 438 kts | 331° |
| 2026-05-09 06:39 | 31.61313 | 121.03007 | 24681 ft | 440 kts | 331° |
| 2026-05-09 06:40 | 31.64062 | 121.01547 | 25030 ft | 439 kts | 331° |
| 2026-05-09 06:40 | 31.66839 | 121.00070 | 25487 ft | 437 kts | 330° |
| 2026-05-09 06:40 | 31.69597 | 120.98600 | 25967 ft | 434 kts | 330° |
| 2026-05-09 06:40 | 31.72342 | 120.97135 | 26433 ft | 432 kts | 330° |
| 2026-05-09 06:41 | 31.75074 | 120.95676 | 26890 ft | 430 kts | 330° |
| 2026-05-09 06:41 | 31.77788 | 120.94224 | 27337 ft | 428 kts | 330° |
| 2026-05-09 06:41 | 31.80500 | 120.92774 | 27800 ft | 427 kts | 330° |
| 2026-05-09 06:41 | 31.83196 | 120.91334 | 28273 ft | 425 kts | 329° |
| 2026-05-09 06:42 | 31.85880 | 120.89902 | 28744 ft | 423 kts | 329° |
| 2026-05-09 06:42 | 31.88555 | 120.88474 | 29218 ft | 421 kts | 329° |
| 2026-05-09 06:42 | 31.91213 | 120.87049 | 29701 ft | 419 kts | 329° |
| 2026-05-09 06:42 | 31.93863 | 120.85626 | 30155 ft | 418 kts | 328° |
| 2026-05-09 06:43 | 31.96504 | 120.84206 | 30315 ft | 417 kts | 328° |
| 2026-05-09 06:43 | 31.99167 | 120.82766 | 30319 ft | 426 kts | 328° |
| 2026-05-09 06:43 | 32.04642 | 120.79802 | 30321 ft | 436 kts | 328° |
| 2026-05-09 06:44 | 32.10160 | 120.76800 | 30320 ft | 434 kts | 324° |
| 2026-05-09 06:44 | 32.12616 | 120.74820 | 30319 ft | 424 kts | 313° |
| 2026-05-09 06:44 | 32.14619 | 120.72326 | 30312 ft | 416 kts | 302° |
| 2026-05-09 06:45 | 32.17097 | 120.66291 | 30315 ft | 407 kts | 282° |
| 2026-05-09 06:45 | 32.17807 | 120.59680 | 30310 ft | 406 kts | 275° |
| 2026-05-09 06:46 | 32.18363 | 120.53088 | 30302 ft | 406 kts | 275° |
| 2026-05-09 06:46 | 32.18827 | 120.47524 | 30301 ft | 406 kts | 275° |
| 2026-05-09 06:47 | 32.19370 | 120.40891 | 30297 ft | 406 kts | 275° |
| 2026-05-09 06:47 | 32.19916 | 120.34244 | 30298 ft | 406 kts | 275° |
| 2026-05-09 06:48 | 32.19892 | 120.29841 | 30297 ft | 407 kts | 263° |
| 2026-05-09 06:48 | 32.19264 | 120.26584 | 30293 ft | 409 kts | 254° |
| 2026-05-09 06:48 | 32.17213 | 120.21518 | 30290 ft | 414 kts | 245° |
| 2026-05-09 06:49 | 32.14473 | 120.15544 | 30283 ft | 414 kts | 245° |
| 2026-05-09 06:49 | 32.11737 | 120.09566 | 30268 ft | 415 kts | 246° |
| 2026-05-09 06:50 | 32.08991 | 120.03571 | 30274 ft | 415 kts | 246° |
| 2026-05-09 06:50 | 32.06239 | 119.97580 | 30277 ft | 416 kts | 245° |
| 2026-05-09 06:51 | 32.03476 | 119.91580 | 30284 ft | 416 kts | 246° |
| 2026-05-09 06:51 | 32.00746 | 119.85566 | 30288 ft | 416 kts | 246° |
| 2026-05-09 06:52 | 31.98050 | 119.79576 | 30264 ft | 416 kts | 246° |
| 2026-05-09 06:52 | 31.95325 | 119.73541 | 30267 ft | 418 kts | 246° |
| 2026-05-09 06:53 | 31.92608 | 119.67487 | 30274 ft | 418 kts | 247° |
| 2026-05-09 06:53 | 31.90002 | 119.61379 | 30280 ft | 418 kts | 248° |
| 2026-05-09 06:54 | 31.87411 | 119.55254 | 30283 ft | 418 kts | 247° |
| 2026-05-09 06:54 | 31.84800 | 119.49142 | 30293 ft | 418 kts | 247° |
| 2026-05-09 06:55 | 31.82174 | 119.43041 | 30264 ft | 419 kts | 247° |
| 2026-05-09 06:55 | 31.79550 | 119.36970 | 30267 ft | 419 kts | 247° |
| 2026-05-09 06:56 | 31.76871 | 119.30868 | 30268 ft | 420 kts | 246° |
| 2026-05-09 06:56 | 31.74177 | 119.24769 | 30268 ft | 420 kts | 246° |
| 2026-05-09 06:57 | 31.71484 | 119.18674 | 30268 ft | 421 kts | 246° |
| 2026-05-09 06:57 | 31.68793 | 119.12575 | 30269 ft | 421 kts | 246° |
| 2026-05-09 06:58 | 31.66284 | 119.06393 | 30255 ft | 417 kts | 255° |
| 2026-05-09 06:58 | 31.65399 | 118.99752 | 30260 ft | 412 kts | 272° |
| 2026-05-09 06:59 | 31.65790 | 118.93052 | 30260 ft | 412 kts | 275° |
| 2026-05-09 06:59 | 31.66325 | 118.86356 | 30264 ft | 412 kts | 276° |
| 2026-05-09 07:00 | 31.66859 | 118.79692 | 30265 ft | 413 kts | 275° |
| 2026-05-09 07:00 | 31.67365 | 118.72971 | 30270 ft | 413 kts | 275° |
| 2026-05-09 07:01 | 31.67852 | 118.66248 | 30279 ft | 413 kts | 275° |
| 2026-05-09 07:01 | 31.68334 | 118.59525 | 30279 ft | 413 kts | 275° |
| 2026-05-09 07:02 | 31.68818 | 118.52803 | 30276 ft | 413 kts | 275° |
| 2026-05-09 07:02 | 31.69305 | 118.46082 | 30274 ft | 413 kts | 275° |
| 2026-05-09 07:03 | 31.69790 | 118.39364 | 30274 ft | 413 kts | 275° |
| 2026-05-09 07:03 | 31.70265 | 118.32647 | 30274 ft | 413 kts | 275° |
| 2026-05-09 07:04 | 31.70731 | 118.25975 | 30269 ft | 413 kts | 275° |
| 2026-05-09 07:04 | 31.71196 | 118.19260 | 30270 ft | 413 kts | 275° |
| 2026-05-09 07:05 | 31.71635 | 118.12544 | 30269 ft | 413 kts | 272° |
| 2026-05-09 07:05 | 31.70863 | 118.05867 | 30271 ft | 416 kts | 259° |
| 2026-05-09 07:06 | 31.69506 | 117.99258 | 30252 ft | 416 kts | 259° |
| 2026-05-09 07:06 | 31.68147 | 117.92650 | 30252 ft | 417 kts | 259° |
| 2026-05-09 07:07 | 31.66779 | 117.86031 | 30253 ft | 417 kts | 259° |
| 2026-05-09 07:07 | 31.65413 | 117.79415 | 30261 ft | 417 kts | 259° |
| 2026-05-09 07:08 | 31.64035 | 117.72798 | 30266 ft | 417 kts | 259° |
| 2026-05-09 07:08 | 31.62649 | 117.66186 | 30266 ft | 417 kts | 259° |
| 2026-05-09 07:09 | 31.61262 | 117.59572 | 30266 ft | 417 kts | 259° |
| 2026-05-09 07:09 | 31.59938 | 117.52947 | 30267 ft | 417 kts | 260° |
| 2026-05-09 07:10 | 31.58791 | 117.46277 | 30245 ft | 417 kts | 261° |
| 2026-05-09 07:10 | 31.57667 | 117.39654 | 30246 ft | 417 kts | 261° |
| 2026-05-09 07:11 | 31.56484 | 117.32987 | 30248 ft | 418 kts | 261° |
| 2026-05-09 07:11 | 31.55283 | 117.26322 | 30249 ft | 418 kts | 261° |
| 2026-05-09 07:12 | 31.54103 | 117.19656 | 30247 ft | 418 kts | 261° |
| 2026-05-09 07:12 | 31.52928 | 117.12987 | 30247 ft | 418 kts | 261° |
| 2026-05-09 07:13 | 31.51745 | 117.06308 | 30239 ft | 418 kts | 261° |
| 2026-05-09 07:13 | 31.50553 | 116.99632 | 30240 ft | 418 kts | 261° |
| 2026-05-09 07:14 | 31.49352 | 116.92963 | 30241 ft | 418 kts | 261° |
| 2026-05-09 07:14 | 31.48005 | 116.86332 | 30220 ft | 421 kts | 253° |
| 2026-05-09 07:15 | 31.45127 | 116.80347 | 30221 ft | 431 kts | 237° |
| 2026-05-09 07:15 | 31.41464 | 116.74769 | 30221 ft | 432 kts | 237° |
| 2026-05-09 07:16 | 31.37807 | 116.69169 | 30227 ft | 433 kts | 237° |
| 2026-05-09 07:16 | 31.34148 | 116.63570 | 30228 ft | 433 kts | 237° |
| 2026-05-09 07:17 | 31.30479 | 116.57983 | 30218 ft | 433 kts | 237° |
| 2026-05-09 07:17 | 31.26809 | 116.52397 | 30216 ft | 434 kts | 237° |
| 2026-05-09 07:18 | 31.23135 | 116.46807 | 30217 ft | 434 kts | 237° |
| 2026-05-09 07:18 | 31.19451 | 116.41205 | 30232 ft | 434 kts | 237° |
| 2026-05-09 07:19 | 31.15774 | 116.35614 | 30232 ft | 434 kts | 237° |
| 2026-05-09 07:19 | 31.12110 | 116.30066 | 30239 ft | 434 kts | 237° |
| 2026-05-09 07:20 | 31.08411 | 116.24489 | 30249 ft | 434 kts | 237° |
| 2026-05-09 07:20 | 31.04717 | 116.18910 | 30253 ft | 435 kts | 237° |
| 2026-05-09 07:21 | 31.01020 | 116.13333 | 30251 ft | 435 kts | 237° |
| 2026-05-09 07:21 | 30.97315 | 116.07753 | 30246 ft | 435 kts | 237° |
| 2026-05-09 07:22 | 30.93606 | 116.02180 | 30259 ft | 435 kts | 236° |
| 2026-05-09 07:22 | 30.89904 | 115.96610 | 30245 ft | 434 kts | 236° |
| 2026-05-09 07:23 | 30.86206 | 115.91048 | 30263 ft | 434 kts | 236° |
| 2026-05-09 07:23 | 30.82532 | 115.85538 | 30267 ft | 433 kts | 236° |
| 2026-05-09 07:24 | 30.78866 | 115.79980 | 30260 ft | 433 kts | 236° |
| 2026-05-09 07:24 | 30.75210 | 115.74415 | 30260 ft | 432 kts | 236° |
| 2026-05-09 07:25 | 30.71557 | 115.68867 | 30254 ft | 432 kts | 236° |
| 2026-05-09 07:25 | 30.67892 | 115.63330 | 30263 ft | 432 kts | 236° |
| 2026-05-09 07:26 | 30.64229 | 115.57803 | 30265 ft | 432 kts | 236° |
| 2026-05-09 07:26 | 30.60569 | 115.52274 | 30264 ft | 432 kts | 236° |
| 2026-05-09 07:27 | 30.56898 | 115.46752 | 30261 ft | 432 kts | 236° |
| 2026-05-09 07:27 | 30.53224 | 115.41242 | 30265 ft | 432 kts | 236° |
| 2026-05-09 07:28 | 30.49553 | 115.35728 | 30263 ft | 432 kts | 236° |
| 2026-05-09 07:28 | 30.46073 | 115.30081 | 30253 ft | 427 kts | 245° |
| 2026-05-09 07:29 | 30.44303 | 115.23604 | 30249 ft | 421 kts | 264° |
| 2026-05-09 07:29 | 30.44525 | 115.16899 | 30244 ft | 421 kts | 277° |
| 2026-05-09 07:30 | 30.45235 | 115.10171 | 30247 ft | 421 kts | 276° |
| 2026-05-09 07:30 | 30.45928 | 115.03428 | 30244 ft | 421 kts | 276° |
| 2026-05-09 07:31 | 30.46617 | 114.96681 | 30253 ft | 422 kts | 276° |
| 2026-05-09 07:31 | 30.47306 | 114.89925 | 30243 ft | 423 kts | 276° |
| 2026-05-09 07:32 | 30.47998 | 114.83153 | 30242 ft | 423 kts | 276° |
| 2026-05-09 07:32 | 30.48685 | 114.76385 | 30246 ft | 423 kts | 276° |
| 2026-05-09 07:33 | 30.49715 | 114.66213 | 30244 ft | 423 kts | 276° |
| 2026-05-09 07:34 | 30.50391 | 114.59436 | 30241 ft | 423 kts | 276° |
| 2026-05-09 07:34 | 30.50993 | 114.53345 | 30244 ft | 423 kts | 276° |
| 2026-05-09 07:35 | 30.51665 | 114.46562 | 30238 ft | 423 kts | 276° |
| 2026-05-09 07:35 | 30.52333 | 114.39785 | 30238 ft | 423 kts | 276° |
| 2026-05-09 07:36 | 30.53002 | 114.33007 | 30224 ft | 423 kts | 276° |
| 2026-05-09 07:36 | 30.53664 | 114.26226 | 30223 ft | 423 kts | 276° |
| 2026-05-09 07:37 | 30.54313 | 114.19455 | 30225 ft | 423 kts | 276° |
| 2026-05-09 07:37 | 30.54956 | 114.12665 | 30221 ft | 423 kts | 276° |
| 2026-05-09 07:38 | 30.55601 | 114.05896 | 30238 ft | 421 kts | 276° |
| 2026-05-09 07:38 | 30.56254 | 113.99212 | 30252 ft | 419 kts | 276° |
| 2026-05-09 07:39 | 30.56886 | 113.92509 | 30257 ft | 417 kts | 276° |
| 2026-05-09 07:39 | 30.57491 | 113.85819 | 30248 ft | 416 kts | 276° |
| 2026-05-09 07:40 | 30.57578 | 113.79113 | 30243 ft | 416 kts | 268° |
| 2026-05-09 07:40 | 30.57327 | 113.72401 | 30237 ft | 416 kts | 268° |
| 2026-05-09 07:41 | 30.57083 | 113.65691 | 30230 ft | 416 kts | 268° |
| 2026-05-09 07:41 | 30.56829 | 113.58976 | 30229 ft | 416 kts | 268° |
| 2026-05-09 07:42 | 30.56573 | 113.52268 | 30230 ft | 416 kts | 268° |
| 2026-05-09 07:42 | 30.56311 | 113.45554 | 30225 ft | 416 kts | 268° |
| 2026-05-09 07:43 | 30.56043 | 113.38845 | 30220 ft | 416 kts | 268° |
| 2026-05-09 07:43 | 30.55776 | 113.32122 | 30213 ft | 417 kts | 268° |
| 2026-05-09 07:44 | 30.55510 | 113.25447 | 30211 ft | 417 kts | 268° |
| 2026-05-09 07:44 | 30.55231 | 113.18711 | 30211 ft | 418 kts | 268° |
| 2026-05-09 07:45 | 30.54949 | 113.11977 | 30209 ft | 418 kts | 268° |
| 2026-05-09 07:45 | 30.54675 | 113.05239 | 30206 ft | 418 kts | 268° |
| 2026-05-09 07:46 | 30.54401 | 112.98499 | 30209 ft | 418 kts | 268° |
| 2026-05-09 07:46 | 30.54109 | 112.91755 | 30207 ft | 419 kts | 268° |
| 2026-05-09 07:47 | 30.53808 | 112.85001 | 30210 ft | 419 kts | 268° |
| 2026-05-09 07:47 | 30.53515 | 112.78258 | 30212 ft | 418 kts | 268° |
| 2026-05-09 07:48 | 30.53227 | 112.71537 | 30229 ft | 416 kts | 268° |
| 2026-05-09 07:48 | 30.52934 | 112.64841 | 30230 ft | 415 kts | 268° |
| 2026-05-09 07:49 | 30.52628 | 112.58160 | 30226 ft | 415 kts | 268° |
| 2026-05-09 07:49 | 30.52323 | 112.51523 | 30223 ft | 414 kts | 268° |
| 2026-05-09 07:50 | 30.52020 | 112.44850 | 30223 ft | 414 kts | 268° |
| 2026-05-09 07:50 | 30.51706 | 112.38166 | 30212 ft | 415 kts | 267° |
| 2026-05-09 07:51 | 30.51388 | 112.31480 | 30206 ft | 416 kts | 268° |
| 2026-05-09 07:51 | 30.51071 | 112.24789 | 30206 ft | 416 kts | 268° |
| 2026-05-09 07:52 | 30.50749 | 112.18088 | 30207 ft | 416 kts | 267° |
| 2026-05-09 07:52 | 30.50423 | 112.11384 | 30204 ft | 416 kts | 267° |
| 2026-05-09 07:53 | 30.50089 | 112.04679 | 30197 ft | 416 kts | 267° |
| 2026-05-09 07:53 | 30.49752 | 111.97975 | 30195 ft | 416 kts | 267° |
| 2026-05-09 07:54 | 30.49417 | 111.91269 | 30192 ft | 417 kts | 267° |
| 2026-05-09 07:54 | 30.49077 | 111.84564 | 30191 ft | 417 kts | 267° |
| 2026-05-09 07:55 | 30.48733 | 111.77857 | 30194 ft | 417 kts | 267° |
| 2026-05-09 07:55 | 30.48379 | 111.71134 | 30190 ft | 418 kts | 267° |
| 2026-05-09 07:56 | 30.48029 | 111.64399 | 30170 ft | 418 kts | 267° |
| 2026-05-09 07:56 | 30.47674 | 111.57729 | 30206 ft | 416 kts | 267° |
| 2026-05-09 07:57 | 30.47314 | 111.51043 | 30213 ft | 414 kts | 267° |
| 2026-05-09 07:57 | 30.46611 | 111.44420 | 30217 ft | 414 kts | 262° |
| 2026-05-09 07:58 | 30.45704 | 111.37832 | 30207 ft | 414 kts | 262° |
| 2026-05-09 07:58 | 30.44802 | 111.31251 | 30206 ft | 413 kts | 262° |
| 2026-05-09 07:59 | 30.43890 | 111.24676 | 30204 ft | 413 kts | 262° |
| 2026-05-09 07:59 | 30.42972 | 111.18108 | 30195 ft | 413 kts | 262° |
| 2026-05-09 08:00 | 30.42063 | 111.11584 | 30198 ft | 413 kts | 262° |
| 2026-05-09 08:00 | 30.41143 | 111.05021 | 30188 ft | 413 kts | 262° |
| 2026-05-09 08:01 | 30.40216 | 110.98440 | 30200 ft | 414 kts | 262° |
| 2026-05-09 08:01 | 30.39284 | 110.91861 | 30196 ft | 414 kts | 262° |
| 2026-05-09 08:02 | 30.38350 | 110.85280 | 30200 ft | 414 kts | 262° |
| 2026-05-09 08:02 | 30.37408 | 110.78694 | 30193 ft | 415 kts | 262° |
| 2026-05-09 08:03 | 30.36464 | 110.72098 | 30198 ft | 414 kts | 262° |
| 2026-05-09 08:03 | 30.35524 | 110.65543 | 30221 ft | 412 kts | 262° |
| 2026-05-09 08:04 | 30.34582 | 110.58994 | 30229 ft | 411 kts | 262° |
| 2026-05-09 08:04 | 30.33635 | 110.52476 | 30238 ft | 411 kts | 262° |
| 2026-05-09 08:05 | 30.32690 | 110.45949 | 30240 ft | 410 kts | 262° |
| 2026-05-09 08:05 | 30.31740 | 110.39452 | 30210 ft | 408 kts | 262° |
| 2026-05-09 08:06 | 30.30791 | 110.32955 | 30213 ft | 410 kts | 262° |
| 2026-05-09 08:06 | 30.29835 | 110.26437 | 30221 ft | 411 kts | 262° |
| 2026-05-09 08:07 | 30.28878 | 110.19915 | 30224 ft | 411 kts | 262° |
| 2026-05-09 08:07 | 30.28081 | 110.14503 | 30226 ft | 411 kts | 262° |
| 2026-05-09 08:08 | 30.26947 | 110.06933 | 30217 ft | 411 kts | 262° |
| 2026-05-09 08:08 | 30.25977 | 110.00411 | 30222 ft | 411 kts | 262° |
| 2026-05-09 08:09 | 30.25166 | 109.94941 | 30232 ft | 412 kts | 262° |
| 2026-05-09 08:09 | 30.24187 | 109.88423 | 30214 ft | 411 kts | 262° |
| 2026-05-09 08:10 | 30.23211 | 109.81912 | 30218 ft | 411 kts | 262° |
| 2026-05-09 08:10 | 30.22244 | 109.75451 | 30223 ft | 411 kts | 262° |
| 2026-05-09 08:11 | 30.21252 | 109.68945 | 30221 ft | 411 kts | 262° |
| 2026-05-09 08:11 | 30.20257 | 109.62436 | 30221 ft | 411 kts | 262° |
| 2026-05-09 08:12 | 30.17954 | 109.52863 | 30233 ft | 414 kts | 256° |
| 2026-05-09 08:12 | 30.16266 | 109.46502 | 30234 ft | 414 kts | 256° |
| 2026-05-09 08:13 | 30.14576 | 109.40151 | 30237 ft | 414 kts | 256° |
| 2026-05-09 08:13 | 30.12887 | 109.33796 | 30236 ft | 414 kts | 256° |
| 2026-05-09 08:14 | 30.11194 | 109.27443 | 30238 ft | 414 kts | 256° |
| 2026-05-09 08:14 | 30.09501 | 109.21092 | 30244 ft | 413 kts | 256° |
| 2026-05-09 08:15 | 30.07802 | 109.14743 | 30220 ft | 414 kts | 256° |
| 2026-05-09 08:15 | 30.06095 | 109.08414 | 30242 ft | 412 kts | 256° |
| 2026-05-09 08:16 | 30.04388 | 109.02101 | 30253 ft | 411 kts | 256° |
| 2026-05-09 08:16 | 30.02685 | 108.95804 | 30260 ft | 410 kts | 256° |
| 2026-05-09 08:17 | 30.01012 | 108.89516 | 30252 ft | 410 kts | 256° |
| 2026-05-09 08:17 | 29.99366 | 108.83219 | 30261 ft | 410 kts | 256° |
| 2026-05-09 08:18 | 29.97710 | 108.76919 | 30258 ft | 411 kts | 256° |
| 2026-05-09 08:18 | 29.96061 | 108.70657 | 30271 ft | 410 kts | 256° |
| 2026-05-09 08:19 | 29.94398 | 108.64368 | 30266 ft | 410 kts | 256° |
| 2026-05-09 08:19 | 29.92727 | 108.58076 | 30265 ft | 410 kts | 256° |
| 2026-05-09 08:20 | 29.91055 | 108.51781 | 30277 ft | 411 kts | 256° |
| 2026-05-09 08:20 | 29.89377 | 108.45486 | 30276 ft | 411 kts | 256° |
| 2026-05-09 08:21 | 29.87692 | 108.39187 | 30284 ft | 411 kts | 256° |
| 2026-05-09 08:21 | 29.86008 | 108.32891 | 30277 ft | 411 kts | 256° |
| 2026-05-09 08:22 | 29.84327 | 108.26602 | 30276 ft | 411 kts | 256° |
| 2026-05-09 08:22 | 29.82641 | 108.20306 | 30279 ft | 411 kts | 256° |
| 2026-05-09 08:23 | 29.80945 | 108.14018 | 30291 ft | 411 kts | 256° |
| 2026-05-09 08:23 | 29.79261 | 108.07780 | 30290 ft | 411 kts | 256° |
| 2026-05-09 08:24 | 29.77563 | 108.01501 | 30294 ft | 410 kts | 256° |
| 2026-05-09 08:24 | 29.75866 | 107.95230 | 30294 ft | 410 kts | 256° |
| 2026-05-09 08:25 | 29.74165 | 107.88960 | 30291 ft | 410 kts | 256° |
| 2026-05-09 08:25 | 29.72464 | 107.82700 | 30284 ft | 410 kts | 256° |
| 2026-05-09 08:26 | 29.70760 | 107.76453 | 30300 ft | 409 kts | 255° |
| 2026-05-09 08:26 | 29.69056 | 107.70225 | 30321 ft | 408 kts | 255° |
| 2026-05-09 08:27 | 29.67353 | 107.64019 | 30319 ft | 406 kts | 256° |
| 2026-05-09 08:27 | 29.65953 | 107.57753 | 30307 ft | 403 kts | 266° |
| 2026-05-09 08:28 | 29.66427 | 107.51369 | 30297 ft | 404 kts | 284° |
| 2026-05-09 08:28 | 29.68058 | 107.45219 | 30294 ft | 405 kts | 284° |
| 2026-05-09 08:29 | 29.69696 | 107.39025 | 30295 ft | 405 kts | 284° |
| 2026-05-09 08:29 | 29.71164 | 107.32772 | 30291 ft | 405 kts | 281° |
| 2026-05-09 08:30 | 29.72391 | 107.26454 | 30293 ft | 405 kts | 281° |
| 2026-05-09 08:30 | 29.74087 | 107.20278 | 30291 ft | 409 kts | 294° |
| 2026-05-09 08:31 | 29.77713 | 107.15145 | 30285 ft | 422 kts | 311° |
| 2026-05-09 08:31 | 29.82088 | 107.10621 | 30291 ft | 422 kts | 311° |
| 2026-05-09 08:32 | 29.86445 | 107.06082 | 30303 ft | 423 kts | 312° |
| 2026-05-09 08:33 | 29.92978 | 106.99236 | 30296 ft | 423 kts | 312° |
| 2026-05-09 08:33 | 29.97339 | 106.94662 | 30294 ft | 424 kts | 312° |
| 2026-05-09 08:34 | 30.01708 | 106.90075 | 30302 ft | 425 kts | 312° |
| 2026-05-09 08:34 | 30.06074 | 106.85483 | 30300 ft | 425 kts | 312° |
| 2026-05-09 08:35 | 30.10445 | 106.80876 | 30293 ft | 425 kts | 312° |
| 2026-05-09 08:35 | 30.14784 | 106.76302 | 30292 ft | 425 kts | 312° |
| 2026-05-09 08:36 | 30.19158 | 106.71687 | 30291 ft | 426 kts | 312° |
| 2026-05-09 08:36 | 30.23526 | 106.67070 | 30283 ft | 425 kts | 312° |
| 2026-05-09 08:37 | 30.27901 | 106.62441 | 30276 ft | 426 kts | 312° |
| 2026-05-09 08:37 | 30.32278 | 106.57803 | 30276 ft | 426 kts | 312° |
| 2026-05-09 08:38 | 30.36659 | 106.53165 | 30276 ft | 427 kts | 312° |
| 2026-05-09 08:38 | 30.41039 | 106.48516 | 30278 ft | 427 kts | 311° |
| 2026-05-09 08:39 | 30.45410 | 106.43857 | 30272 ft | 427 kts | 311° |
| 2026-05-09 08:39 | 30.49792 | 106.39197 | 30286 ft | 427 kts | 312° |
| 2026-05-09 08:40 | 30.54173 | 106.34535 | 30274 ft | 427 kts | 312° |
| 2026-05-09 08:40 | 30.58551 | 106.29852 | 30267 ft | 427 kts | 310° |
| 2026-05-09 08:41 | 30.62076 | 106.24475 | 30260 ft | 420 kts | 299° |
| 2026-05-09 08:41 | 30.65240 | 106.18712 | 30246 ft | 420 kts | 299° |
| 2026-05-09 08:42 | 30.68374 | 106.13025 | 30254 ft | 421 kts | 299° |
| 2026-05-09 08:42 | 30.71502 | 106.07280 | 30256 ft | 420 kts | 296° |
| 2026-05-09 08:43 | 30.73317 | 106.00935 | 30259 ft | 414 kts | 276° |
| 2026-05-09 08:43 | 30.73025 | 105.94279 | 30252 ft | 415 kts | 262° |
| 2026-05-09 08:44 | 30.72080 | 105.87660 | 30246 ft | 416 kts | 262° |
| 2026-05-09 08:44 | 30.71141 | 105.81029 | 30245 ft | 416 kts | 262° |
| 2026-05-09 08:45 | 30.70205 | 105.74387 | 30244 ft | 416 kts | 262° |
| 2026-05-09 08:45 | 30.69265 | 105.67755 | 30245 ft | 416 kts | 262° |
| 2026-05-09 08:46 | 30.68315 | 105.61127 | 30240 ft | 416 kts | 262° |
| 2026-05-09 08:46 | 30.67358 | 105.54481 | 30240 ft | 417 kts | 262° |
| 2026-05-09 08:47 | 30.66397 | 105.47837 | 30240 ft | 417 kts | 262° |
| 2026-05-09 08:47 | 30.65424 | 105.41181 | 30245 ft | 418 kts | 262° |
| 2026-05-09 08:48 | 30.64452 | 105.34529 | 30241 ft | 418 kts | 262° |
| 2026-05-09 08:48 | 30.63484 | 105.27864 | 30238 ft | 418 kts | 261° |
| 2026-05-09 08:49 | 30.61673 | 105.21454 | 30222 ft | 423 kts | 244° |
| 2026-05-09 08:49 | 30.58069 | 105.15990 | 30240 ft | 429 kts | 233° |
| 2026-05-09 08:50 | 30.54160 | 105.10779 | 30250 ft | 428 kts | 233° |
| 2026-05-09 08:50 | 30.50290 | 105.05591 | 30254 ft | 428 kts | 233° |
| 2026-05-09 08:51 | 30.46402 | 105.00379 | 30251 ft | 427 kts | 233° |
| 2026-05-09 08:51 | 30.42501 | 104.95182 | 30261 ft | 427 kts | 233° |
| 2026-05-09 08:52 | 30.39040 | 104.89661 | 30259 ft | 421 kts | 246° |
| 2026-05-09 08:52 | 30.37045 | 104.83334 | 30257 ft | 418 kts | 253° |
| 2026-05-09 08:53 | 30.35237 | 104.76921 | 30048 ft | 419 kts | 253° |
| 2026-05-09 08:53 | 30.34330 | 104.73710 | 29782 ft | 420 kts | 253° |
| 2026-05-09 08:53 | 30.33419 | 104.70491 | 29510 ft | 422 kts | 253° |
| 2026-05-09 08:53 | 30.32501 | 104.67258 | 29240 ft | 423 kts | 253° |
| 2026-05-09 08:54 | 30.31576 | 104.64012 | 28973 ft | 425 kts | 253° |
| 2026-05-09 08:54 | 30.30648 | 104.60758 | 28706 ft | 427 kts | 253° |
| 2026-05-09 08:54 | 30.29965 | 104.57421 | 28446 ft | 427 kts | 265° |
| 2026-05-09 08:54 | 30.30055 | 104.54040 | 28192 ft | 429 kts | 278° |
| 2026-05-09 08:55 | 30.30955 | 104.50739 | 27944 ft | 435 kts | 293° |
| 2026-05-09 08:55 | 30.32646 | 104.47802 | 27682 ft | 444 kts | 308° |
| 2026-05-09 08:55 | 30.34987 | 104.45443 | 26842 ft | 454 kts | 322° |
| 2026-05-09 08:55 | 30.37707 | 104.43550 | 25675 ft | 454 kts | 326° |
| 2026-05-09 08:56 | 30.40414 | 104.41750 | 24576 ft | 444 kts | 327° |
| 2026-05-09 08:56 | 30.42223 | 104.40562 | 23869 ft | 440 kts | 327° |
| 2026-05-09 08:56 | 30.45736 | 104.38246 | 22305 ft | 436 kts | 327° |
| 2026-05-09 08:56 | 30.48363 | 104.36495 | 21157 ft | 437 kts | 327° |
| 2026-05-09 08:57 | 30.50148 | 104.35295 | 20393 ft | 441 kts | 327° |
| 2026-05-09 08:57 | 30.52771 | 104.33518 | 19312 ft | 445 kts | 328° |
| 2026-05-09 08:57 | 30.55443 | 104.31700 | 18362 ft | 445 kts | 328° |
| 2026-05-09 08:57 | 30.58135 | 104.29853 | 17529 ft | 439 kts | 326° |
| 2026-05-09 08:58 | 30.60469 | 104.27722 | 17361 ft | 417 kts | 315° |
| 2026-05-09 08:58 | 30.62315 | 104.25234 | 17210 ft | 399 kts | 304° |
| 2026-05-09 08:58 | 30.63647 | 104.22564 | 17021 ft | 377 kts | 294° |
| 2026-05-09 08:58 | 30.64625 | 104.19830 | 16839 ft | 357 kts | 292° |
| 2026-05-09 08:59 | 30.65620 | 104.17305 | 16679 ft | 332 kts | 304° |
| 2026-05-09 08:59 | 30.67220 | 104.15497 | 16527 ft | 313 kts | 330° |
| 2026-05-09 08:59 | 30.69218 | 104.14755 | 16373 ft | 296 kts | 356° |
| 2026-05-09 08:59 | 30.71197 | 104.15071 | 16224 ft | 282 kts | 19° |
| 2026-05-09 09:00 | 30.72986 | 104.15901 | 16099 ft | 274 kts | 21° |
| 2026-05-09 09:00 | 30.74720 | 104.16721 | 15951 ft | 263 kts | 21° |
| 2026-05-09 09:00 | 30.76375 | 104.17506 | 15759 ft | 255 kts | 21° |
| 2026-05-09 09:00 | 30.78035 | 104.18291 | 15318 ft | 260 kts | 21° |
| 2026-05-09 09:01 | 30.79724 | 104.19090 | 14920 ft | 263 kts | 22° |
| 2026-05-09 09:01 | 30.81432 | 104.19899 | 14526 ft | 267 kts | 22° |
| 2026-05-09 09:01 | 30.83136 | 104.20704 | 14139 ft | 269 kts | 22° |
| 2026-05-09 09:01 | 30.84903 | 104.21538 | 13720 ft | 272 kts | 23° |
| 2026-05-09 09:02 | 30.86629 | 104.22353 | 13368 ft | 271 kts | 22° |
| 2026-05-09 09:02 | 30.88357 | 104.23170 | 12933 ft | 266 kts | 23° |
| 2026-05-09 09:02 | 30.90064 | 104.23927 | 12509 ft | 259 kts | 14° |
| 2026-05-09 09:02 | 30.91819 | 104.23831 | 12129 ft | 256 kts | 339° |
| 2026-05-09 09:03 | 30.93180 | 104.22535 | 11721 ft | 259 kts | 305° |
| 2026-05-09 09:03 | 30.93990 | 104.20666 | 11322 ft | 258 kts | 297° |
| 2026-05-09 09:03 | 30.94660 | 104.18741 | 10928 ft | 256 kts | 295° |
| 2026-05-09 09:03 | 30.95288 | 104.16809 | 10516 ft | 253 kts | 295° |
| 2026-05-09 09:04 | 30.95732 | 104.14834 | 10115 ft | 256 kts | 273° |
| 2026-05-09 09:04 | 30.95247 | 104.12846 | 9658 ft | 261 kts | 236° |
| 2026-05-09 09:04 | 30.93864 | 104.11530 | 9257 ft | 258 kts | 200° |
| 2026-05-09 09:04 | 30.92155 | 104.10965 | 8881 ft | 253 kts | 197° |
| 2026-05-09 09:05 | 30.90497 | 104.10257 | 8516 ft | 256 kts | 202° |
| 2026-05-09 09:05 | 30.88851 | 104.09428 | 8135 ft | 260 kts | 204° |
| 2026-05-09 09:05 | 30.87188 | 104.08566 | 7746 ft | 263 kts | 204° |
| 2026-05-09 09:05 | 30.85501 | 104.07707 | 7363 ft | 266 kts | 204° |
| 2026-05-09 09:06 | 30.83822 | 104.06875 | 7076 ft | 264 kts | 203° |
| 2026-05-09 09:06 | 30.82137 | 104.06060 | 6783 ft | 259 kts | 202° |
| 2026-05-09 09:06 | 30.80479 | 104.05271 | 6304 ft | 255 kts | 202° |
| 2026-05-09 09:06 | 30.78846 | 104.04501 | 5846 ft | 251 kts | 202° |
| 2026-05-09 09:07 | 30.77255 | 104.03755 | 5470 ft | 242 kts | 202° |
| 2026-05-09 09:07 | 30.75720 | 104.03036 | 5145 ft | 233 kts | 202° |
| 2026-05-09 09:07 | 30.74232 | 104.02340 | 4803 ft | 227 kts | 202° |
| 2026-05-09 09:07 | 30.72819 | 104.01681 | 4481 ft | 210 kts | 202° |
| 2026-05-09 09:08 | 30.71512 | 104.01071 | 4191 ft | 194 kts | 202° |
| 2026-05-09 09:08 | 30.70302 | 104.00507 | 3935 ft | 181 kts | 202° |
| 2026-05-09 09:08 | 30.69176 | 103.99982 | 3707 ft | 167 kts | 202° |
| 2026-05-09 09:08 | 30.68138 | 103.99498 | 3503 ft | 156 kts | 202° |
| 2026-05-09 09:09 | 30.67148 | 103.99036 | 3285 ft | 150 kts | 202° |
| 2026-05-09 09:09 | 30.66206 | 103.98596 | 3092 ft | 146 kts | 202° |
| 2026-05-09 09:09 | 30.65273 | 103.98161 | 2916 ft | 140 kts | 201° |
| 2026-05-09 09:09 | 30.64385 | 103.97746 | 2724 ft | 139 kts | 201° |
| 2026-05-09 09:10 | 30.63486 | 103.97327 | 2531 ft | 141 kts | 202° |
| 2026-05-09 09:10 | 30.62573 | 103.96896 | 2361 ft | 142 kts | 202° |
| 2026-05-09 09:10 | 30.61645 | 103.96458 | 2130 ft | 145 kts | 201° |
| 2026-05-09 09:10 | 30.60702 | 103.96030 | 1948 ft | 147 kts | 200° |
| 2026-05-09 09:11 | 30.59748 | 103.95591 | 1776 ft | 147 kts | 201° |
| 2026-05-09 09:11 | 30.58807 | 103.95138 | 1677 ft | 137 kts | 200° |
| 2026-05-09 09:11 | 30.58068 | 103.94806 | 1648 ft | 76 kts | 202° |
| 2026-05-09 09:11 | 30.57796 | 103.94675 | 1647 ft | 27 kts | 202° |
| 2026-05-09 09:12 | 30.57615 | 103.94608 | 1642 ft | 27 kts | 190° |
| 2026-05-09 09:12 | 30.57497 | 103.94604 | 1646 ft | 17 kts | 176° |
| 2026-05-09 09:12 | 30.57418 | 103.94618 | 1646 ft | 9 kts | 170° |
| 2026-05-09 09:12 | 30.57353 | 103.94640 | 1647 ft | 11 kts | 144° |
| 2026-05-09 09:13 | 30.57314 | 103.94719 | 1647 ft | 12 kts | 110° |
| 2026-05-09 09:13 | 30.57286 | 103.94805 | 1647 ft | 8 kts | 111° |
| 2026-05-09 09:13 | 30.57267 | 103.94872 | 1647 ft | 9 kts | 91° |
| 2026-05-09 09:13 | 30.57317 | 103.94903 | 1647 ft | 9 kts | 11° |
| 2026-05-09 09:14 | 30.57388 | 103.94899 | 1647 ft | 11 kts | 350° |
| 2026-05-09 09:14 | 30.57469 | 103.94921 | 1647 ft | 13 kts | 23° |
| 2026-05-09 09:14 | 30.57523 | 103.94991 | 1647 ft | 12 kts | 99° |
| 2026-05-09 09:14 | 30.57492 | 103.95081 | 1647 ft | 13 kts | 113° |
| 2026-05-09 09:15 | 30.57465 | 103.95159 | 1647 ft | 5 kts | 120° |
| 2026-05-09 09:15 | 30.57433 | 103.95162 | 1647 ft | 6 kts | 198° |
| 2026-05-09 09:15 | 30.57389 | 103.95144 | 1647 ft | 6 kts | 199° |
| 2026-05-09 09:15 | 30.57379 | 103.95140 | 1647 ft | 0 kts | 201° |